Test XHTML 1.0 Strict Page for WU-History Testing
Station Historical Data
Daily Summary for May 20, 2017 Units:  Metric    English   Both
« Previous Day
Next Day »
Daily Weekly Monthly Yearly Custom
  High: Low: Average:
Temperature: 14.7 °C 4.7 °C 10 °C
Dew Point: 13.3 °C 4.7 °C 8.7 °C
Humidity: 100 % 71 % 93 %
Wind Speed: 16.3 km/h 0 km/h 2.3 km/h
Wind Gust: 16.3 km/h - -
Wind:- - SSW
Pressure: 1020.2 hPa 1013.1 hPa -
Precipitation: 2.54 mm    
Historical Graphs
 
 
Weather-Above Climate History
Untitled
Tabular Data for May 20, 2017
Time Temperature Dew Point Pressure Wind Wind Speed Wind Gust Humidity Rainfall Rate (Hourly) solar Conditions
00:03 9 °C 9 °C 1013.1 hPa Calm     100 % 0 mm 0.0 W/m2
00:09 8.9 °C 8.9 °C 1013.1 hPa Calm     100 % 0 mm 27.5 W/m2 CLR
00:14 8.7 °C 8.7 °C 1013.1 hPa Calm     100 % 0 mm 20.0 W/m2 CLR
00:19 8.4 °C 8.4 °C 1013.1 hPa Calm     100 % 0 mm 0.0 W/m2
00:24 8.4 °C 8.4 °C 1013.1 hPa Calm     100 % 0 mm 0.0 W/m2
00:29 8.5 °C 8.5 °C 1013.4 hPa Calm     100 % 0 mm 32.5 W/m2 OVC
00:34 8.5 °C 8.5 °C 1013.1 hPa Calm     100 % 0 mm 0.0 W/m2 OVC
00:39 8.6 °C 8.6 °C 1013.1 hPa Calm     100 % 0 mm 0.0 W/m2
00:44 8.5 °C 8.5 °C 1013.1 hPa Calm     100 % 0 mm 20.0 W/m2
00:49 8.2 °C 8.2 °C 1013.1 hPa Calm     100 % 0 mm 0.0 W/m2 CLR
00:54 8 °C 8 °C 1013.1 hPa Calm     100 % 0 mm 0.0 W/m2 CLR
00:59 7.7 °C 7.7 °C 1013.1 hPa Calm     100 % 0 mm 17.5 W/m2 CLR
01:04 7.6 °C 7.6 °C 1013.1 hPa Calm     100 % 0 mm 0.0 W/m2 RA
01:09 7.4 °C 7.4 °C 1013.4 hPa Calm     100 % 0 mm 15.0 W/m2 RA
01:14 7.3 °C 7.3 °C 1013.4 hPa Calm     100 % 0 mm 17.5 W/m2 CLR
01:19 7.2 °C 7.2 °C 1013.4 hPa Calm     100 % 0 mm 0.0 W/m2 CLR
01:25 7.2 °C 7.2 °C 1013.4 hPa Calm     100 % 0 mm 0.0 W/m2 CLR
01:30 7 °C 7 °C 1013.1 hPa Calm     100 % 0 mm 20.0 W/m2 CLR
01:35 7 °C 7 °C 1013.1 hPa Calm     100 % 0 mm 0.0 W/m2 CLR
01:40 7 °C 7 °C 1013.1 hPa Calm     100 % 0 mm 0.0 W/m2 CLR
01:45 7 °C 7 °C 1013.4 hPa Calm     100 % 0 mm 17.5 W/m2 CLR
01:50 6.9 °C 6.9 °C 1013.4 hPa Calm     100 % 0 mm 0.0 W/m2 CLR
01:55 6.9 °C 6.9 °C 1013.4 hPa Calm     100 % 0 mm 0.0 W/m2 CLR
02:00 6.9 °C 6.9 °C 1013.4 hPa Calm     100 % 0 mm 0.0 W/m2 CLR
02:05 6.7 °C 6.7 °C 1013.4 hPa Calm     100 % 0 mm 0.0 W/m2 CLR
02:10 6.6 °C 6.6 °C 1013.1 hPa Calm     100 % 0 mm 0.0 W/m2 CLR
02:15 6.5 °C 6.5 °C 1013.4 hPa Calm     100 % 0 mm 0.0 W/m2 CLR
02:20 6.5 °C 6.5 °C 1013.1 hPa Calm     100 % 0 mm 17.5 W/m2 CLR
02:25 6.5 °C 6.5 °C 1013.1 hPa Calm     100 % 0 mm 0.0 W/m2 CLR
02:30 6.5 °C 6.5 °C 1013.1 hPa Calm     100 % 0 mm 17.5 W/m2 CLR
02:35 6.4 °C 6.4 °C 1013.1 hPa Calm     100 % 0 mm 30.0 W/m2 CLR
02:40 6.4 °C 6.4 °C 1013.4 hPa Calm     100 % 0 mm 0.0 W/m2 CLR
02:45 6.4 °C 6.4 °C 1013.1 hPa Calm     100 % 0 mm 0.0 W/m2 CLR
02:50 6.3 °C 6.3 °C 1013.1 hPa Calm     100 % 0 mm 17.5 W/m2 CLR
02:55 6.3 °C 6.3 °C 1013.1 hPa Calm     100 % 0 mm 20.0 W/m2 CLR
03:00 6.2 °C 6.2 °C 1013.4 hPa Calm     100 % 0 mm 0.0 W/m2 CLR
03:05 6 °C 6 °C 1013.4 hPa Calm     100 % 0 mm 17.5 W/m2 CLR
03:11 6 °C 6 °C 1013.4 hPa Calm     100 % 0 mm 20.0 W/m2 CLR
03:16 5.9 °C 5.9 °C 1013.1 hPa Calm     100 % 0 mm 0.0 W/m2 CLR
03:21 6 °C 6 °C 1013.1 hPa Calm     100 % 0 mm 17.5 W/m2 CLR
03:26 6.1 °C 6.1 °C 1013.1 hPa Calm     100 % 0 mm 17.5 W/m2
03:31 6.2 °C 6.2 °C 1013.4 hPa Calm     100 % 0 mm 22.5 W/m2
03:36 6.4 °C 6.4 °C 1013.4 hPa Calm     100 % 0 mm 0.0 W/m2 OVC
03:41 6.4 °C 6.4 °C 1013.4 hPa Calm     100 % 0 mm 17.5 W/m2 OVC
03:46 6.5 °C 6.5 °C 1013.4 hPa Calm     100 % 0 mm 0.0 W/m2 OVC
03:51 6.6 °C 6.6 °C 1013.4 hPa Calm     100 % 0 mm 0.0 W/m2 OVC
03:56 6.7 °C 6.7 °C 1013.4 hPa Calm     100 % 0 mm 25.0 W/m2
04:01 6.5 °C 6.5 °C 1013.4 hPa Calm     100 % 0 mm 0.0 W/m2 CLR
04:06 6.4 °C 6.4 °C 1013.4 hPa Calm     100 % 0 mm 0.0 W/m2 CLR
04:11 6.3 °C 6.3 °C 1013.4 hPa Calm     100 % 0 mm 20.0 W/m2 CLR
04:16 6.3 °C 6.3 °C 1013.4 hPa Calm     100 % 0 mm 0.0 W/m2
04:21 6.4 °C 6.4 °C 1013.4 hPa Calm     100 % 0 mm 0.0 W/m2 CLR
04:26 6.2 °C 6.2 °C 1013.1 hPa Calm     100 % 0 mm 32.5 W/m2 CLR
04:31 5.9 °C 5.9 °C 1013.1 hPa Calm     100 % 0 mm 17.5 W/m2 CLR
04:36 5.8 °C 5.8 °C 1013.4 hPa Calm     100 % 0 mm 0.0 W/m2 CLR
04:41 5.7 °C 5.7 °C 1013.1 hPa Calm     100 % 0 mm 0.0 W/m2 CLR
04:47 5.7 °C 5.7 °C 1013.1 hPa Calm     100 % 0 mm 20.0 W/m2 CLR
04:52 5.5 °C 5.5 °C 1013.1 hPa Calm     100 % 0 mm 0.0 W/m2 CLR
04:57 5.4 °C 5.4 °C 1013.1 hPa Calm     100 % 0 mm 0.0 W/m2 CLR
05:02 5.3 °C 5.3 °C 1013.1 hPa Calm     100 % 0 mm 0.1 W/m2 OVC
05:07 5.3 °C 5.3 °C 1013.1 hPa Calm     100 % 0 mm 0.1 W/m2 OVC
05:12 5.2 °C 5.2 °C 1013.4 hPa Calm     100 % 0 mm 0.1 W/m2 OVC
05:17 5 °C 5 °C 1013.4 hPa Calm     100 % 0 mm 35.0 W/m2 OVC
05:22 5 °C 5 °C 1013.4 hPa Calm     100 % 0 mm 0.7 W/m2 OVC
05:27 5 °C 5 °C 1013.4 hPa Calm     100 % 0 mm 1.1 W/m2 OVC
05:32 5 °C 5 °C 1013.4 hPa Calm     100 % 0 mm 20.0 W/m2 OVC
05:37 5 °C 5 °C 1013.4 hPa Calm     100 % 0 mm 2.0 W/m2 OVC
05:42 4.8 °C 4.8 °C 1013.4 hPa Calm     100 % 0 mm 2.6 W/m2
05:47 4.7 °C 4.7 °C 1013.4 hPa Calm     100 % 0 mm 42.5 W/m2
05:52 4.9 °C 4.9 °C 1013.4 hPa Calm     100 % 0 mm 3.9 W/m2
05:57 4.7 °C 4.7 °C 1013.4 hPa Calm     100 % 0 mm 4.7 W/m2
06:02 4.7 °C 4.7 °C 1013.8 hPa Calm     100 % 0 mm 80.0 W/m2
06:07 4.7 °C 4.7 °C 1013.4 hPa Calm     100 % 0 mm 6.9 W/m2
06:12 4.7 °C 4.7 °C 1013.8 hPa Calm     100 % 0 mm 10.8 W/m2
06:17 4.8 °C 4.8 °C 1013.8 hPa Calm     100 % 0 mm 70.0 W/m2
06:28 5 °C 5 °C 1013.8 hPa Calm     100 % 0 mm 15.4 W/m2 OVC
06:33 5.2 °C 5.2 °C 1013.4 hPa Calm     100 % 0 mm 75.0 W/m2 OVC
06:38 5.2 °C 5.2 °C 1013.8 hPa Calm     100 % 0 mm 52.5 W/m2 OVC
06:43 5.5 °C 5.5 °C 1013.8 hPa Calm     100 % 0 mm 20.9 W/m2 OVC
06:48 5.7 °C 5.7 °C 1013.8 hPa Calm     100 % 0 mm 52.5 W/m2 OVC
06:53 5.8 °C 5.8 °C 1013.8 hPa Calm     100 % 0 mm 107.5 W/m2 OVC
06:58 6.2 °C 6.2 °C 1013.8 hPa Calm     100 % 0 mm 29.0 W/m2 OVC
07:03 6.4 °C 6.4 °C 1013.8 hPa Calm     100 % 0 mm 95.0 W/m2 OVC
07:08 6.9 °C 6.9 °C 1013.8 hPa Calm     100 % 0 mm 75.0 W/m2 OVC
07:13 7.1 °C 7.1 °C 1013.8 hPa SSE 1.6 km/h 1.6 km/h 100 % 0 mm 44.0 W/m2 OVC
07:18 7.4 °C 7.4 °C 1013.8 hPa South 3.7 km/h 3.7 km/h 100 % 0 mm 112.5 W/m2 OVC
07:23 7.5 °C 7.5 °C 1013.8 hPa Calm     100 % 0 mm 125.0 W/m2 OVC
07:28 7.7 °C 7.7 °C 1013.8 hPa Calm     100 % 0 mm 54.2 W/m2 OVC
07:33 7.9 °C 7.9 °C 1013.8 hPa West 1.9 km/h   100 % 0 mm 172.5 W/m2 OVC
07:38 8.1 °C 8.1 °C 1013.8 hPa ESE 4.2 km/h 4.2 km/h 100 % 0 mm 145.0 W/m2 OVC
07:43 8.3 °C 8.3 °C 1013.8 hPa SSE 2.4 km/h 2.4 km/h 100 % 0 mm 66.1 W/m2 OVC
07:48 8.5 °C 8.5 °C 1013.8 hPa South 1.9 km/h 1.9 km/h 100 % 0 mm 170.0 W/m2 BKN
07:53 8.7 °C 8.6 °C 1014.1 hPa Calm     99 % 0 mm 197.5 W/m2 BKN
07:58 8.7 °C 8.6 °C 1014.1 hPa SSE 5.6 km/h 5.6 km/h 99 % 0 mm 219.7 W/m2 BKN
08:03 9 °C 8.7 °C 1014.1 hPa SSE 3.7 km/h 3.7 km/h 98 % 0 mm 252.5 W/m2 BKN
08:09 9 °C 8.7 °C 1014.1 hPa South 1.9 km/h   98 % 0 mm 270.0 W/m2 BKN
08:14 9.1 °C 8.8 °C 1014.1 hPa SSW 4 km/h 4 km/h 98 % 0 mm 424.5 W/m2 BKN
08:19 9.3 °C 8.6 °C 1014.1 hPa West 6.4 km/h 6.4 km/h 95 % 0 mm 215.0 W/m2 BKN
08:24 9.3 °C 8.6 °C 1014.1 hPa WSW 12.2 km/h 12.2 km/h 95 % 0 mm 322.5 W/m2 SCT
08:29 9.6 °C 8.5 °C 1014.1 hPa Calm     93 % 0 mm 393.3 W/m2 SCT
08:34 9.7 °C 8.8 °C 1014.1 hPa WSW 2.4 km/h 2.4 km/h 94 % 0 mm 357.5 W/m2 SCT
08:39 9.9 °C 9.1 °C 1014.1 hPa South 2.9 km/h 2.9 km/h 95 % 0 mm 410.0 W/m2 FEW
08:44 10.4 °C 9 °C 1014.1 hPa SSW 4 km/h 4 km/h 91 % 0 mm 387.5 W/m2 CLR
08:49 10.6 °C 8.7 °C 1014.1 hPa SSE 3.7 km/h 3.7 km/h 88 % 0 mm 474.9 W/m2 FEW
08:54 10.7 °C 9.1 °C 1014.1 hPa SW 7.6 km/h 7.6 km/h 90 % 0 mm 385.0 W/m2 SCT
08:59 10.7 °C 8.8 °C 1014.1 hPa SSE 6.4 km/h 6.4 km/h 88 % 0 mm 432.5 W/m2 FEW
09:04 11.2 °C 9.4 °C 1014.1 hPa South 1.3 km/h 1.3 km/h 89 % 0 mm 420.0 W/m2 CLR
09:09 11.4 °C 9.3 °C 1014.1 hPa NW 4 km/h 4 km/h 87 % 0 mm 387.5 W/m2 CLR
09:14 11.7 °C 9.1 °C 1014.1 hPa SW 1.9 km/h 1.9 km/h 84 % 0 mm 483.4 W/m2 FEW
09:19 12.2 °C 9.8 °C 1014.1 hPa WSW 11.7 km/h 11.7 km/h 85 % 0 mm 280.0 W/m2 SCT
09:24 11.9 °C 9.1 °C 1014.1 hPa East 1.6 km/h 1.6 km/h 83 % 0 mm 310.0 W/m2 BKN
09:29 12 °C 9.4 °C 1014.1 hPa West 9.3 km/h 9.3 km/h 84 % 0 mm 337.5 W/m2 BKN
09:34 12 °C 9.7 °C 1014.1 hPa Calm     86 % 0 mm 213.9 W/m2 BKN
09:39 12.4 °C 9.2 °C 1014.4 hPa SSE 5.6 km/h 5.6 km/h 81 % 0 mm 470.0 W/m2 BKN
09:44 12.9 °C 9.6 °C 1014.4 hPa SW 5.6 km/h 5.6 km/h 80 % 0 mm 302.5 W/m2 BKN
09:50 12.9 °C 9.9 °C 1014.1 hPa Calm     82 % 0 mm 298.3 W/m2 BKN
09:55 13.5 °C 9.7 °C 1014.1 hPa SSW 9.3 km/h 9.3 km/h 78 % 0 mm 287.5 W/m2 BKN
10:00 13 °C 9.3 °C 1014.4 hPa NNW 1.9 km/h 1.9 km/h 78 % 0 mm 352.5 W/m2 BKN
10:05 13.2 °C 9.3 °C 1014.4 hPa East 7.4 km/h 7.4 km/h 77 % 0 mm 582.3 W/m2 BKN
10:10 13.2 °C 10 °C 1014.4 hPa SW 7.4 km/h 7.4 km/h 81 % 0 mm 317.5 W/m2 BKN
10:15 13.3 °C 9.6 °C 1014.4 hPa SSE 3.7 km/h 3.7 km/h 78 % 0 mm 302.5 W/m2 BKN
10:20 13.2 °C 9.6 °C 1014.4 hPa West 5.8 km/h 5.8 km/h 79 % 0 mm 392.7 W/m2 BKN
10:25 13.2 °C 9.4 °C 1014.4 hPa SSE 3.7 km/h 3.7 km/h 78 % 0 mm 332.5 W/m2 BKN
10:30 13.4 °C 9.4 °C 1014.8 hPa SSE 3.7 km/h 3.7 km/h 77 % 0 mm 432.5 W/m2 BKN
10:35 13.7 °C 10.1 °C 1014.8 hPa South 14.5 km/h 14.5 km/h 79 % 0 mm 515.0 W/m2 BKN
10:40 13.7 °C 10.1 °C 1014.8 hPa SSE 3.7 km/h 3.7 km/h 79 % 0 mm 405.0 W/m2 BKN
10:45 13.8 °C 10.1 °C 1014.8 hPa West 5.6 km/h 5.6 km/h 78 % 0 mm 340.0 W/m2 BKN
10:50 14 °C 10.2 °C 1014.8 hPa SW 11.1 km/h 11.1 km/h 78 % 0 mm 522.5 W/m2 SCT
10:55 13.8 °C 9.8 °C 1014.8 hPa SW 1.9 km/h 1.9 km/h 77 % 0 mm 350.0 W/m2 SCT
11:00 13.9 °C 9.9 °C 1014.8 hPa SW 3.7 km/h   77 % 0 mm 430.0 W/m2 BKN
11:05 14.2 °C 10 °C 1014.8 hPa South 1.9 km/h 1.9 km/h 76 % 0 mm 622.0 W/m2 BKN
11:10 14.2 °C 9.8 °C 1014.8 hPa SSE 7.4 km/h 7.4 km/h 75 % 0 mm 387.5 W/m2 SCT
11:15 14.1 °C 9.9 °C 1014.8 hPa SE 5.6 km/h   76 % 0 mm 327.5 W/m2 SCT
11:20 13.8 °C 10.1 °C 1014.8 hPa ENE 11.1 km/h 11.1 km/h 78 % 0 mm 477.3 W/m2 BKN
11:25 13.4 °C 10 °C 1014.8 hPa SSW 11.7 km/h 11.7 km/h 80 % 0 mm 325.0 W/m2 BKN
11:31 13.4 °C 10.6 °C 1014.8 hPa ESE 4.2 km/h 4.2 km/h 83 % 0 mm 297.5 W/m2 BKN
11:36 13.2 °C 10.7 °C 1014.8 hPa Calm     85 % 0 mm 472.8 W/m2 BKN
11:41 13.1 °C 10.4 °C 1014.8 hPa SSE 4.2 km/h 4.2 km/h 84 % 0 mm 260.0 W/m2 BKN
11:46 12.7 °C 10.2 °C 1014.8 hPa South 9.3 km/h 9.3 km/h 85 % 0 mm 374.4 W/m2 BKN
11:51 12.6 °C 10.3 °C 1014.8 hPa WSW 3.7 km/h   86 % 0 mm 331.2 W/m2 BKN
11:56 12.5 °C 10.4 °C 1014.8 hPa Calm     87 % 0 mm 205.0 W/m2 BKN
12:01 12.4 °C 10.8 °C 1014.8 hPa Calm     90 % 0 mm 349.6 W/m2 BKN
12:06 12.4 °C 10.8 °C 1014.8 hPa Calm     90 % 0.25 mm 607.9 W/m2 RA
12:11 12.6 °C 11 °C 1014.8 hPa South 7.4 km/h 7.4 km/h 90 % 0.25 mm 392.5 W/m2 RA
12:16 12.8 °C 11.2 °C 1014.8 hPa East 10 km/h 10 km/h 90 % 0.25 mm 427.5 W/m2 BKN
12:21 12.6 °C 11 °C 1014.8 hPa SSE 7.4 km/h 7.4 km/h 90 % 0.25 mm 509.1 W/m2 BKN
12:26 12.5 °C 11.6 °C 1014.8 hPa South 2.7 km/h 2.7 km/h 94 % 0.25 mm 357.5 W/m2 BKN
12:31 12.8 °C 11.1 °C 1014.8 hPa SSW 0.6 km/h   89 % 0.51 mm 529.1 W/m2 RA
12:36 12.4 °C 10.8 °C 1014.8 hPa South 8.2 km/h 8.2 km/h 90 % 0.51 mm 247.3 W/m2 BKN
12:41 12 °C 10.7 °C 1014.8 hPa SSE 2.7 km/h 2.7 km/h 92 % 0.51 mm 340.0 W/m2 BKN
12:46 12.4 °C 11.6 °C 1014.8 hPa East 7.4 km/h 7.4 km/h 95 % 0.51 mm 427.5 W/m2 BKN
12:51 12.7 °C 11.6 °C 1014.8 hPa SSE 11.1 km/h 11.1 km/h 93 % 0.51 mm 860.0 W/m2 SCT
12:56 13 °C 11.4 °C 1014.8 hPa South 6.9 km/h 6.9 km/h 90 % 0.51 mm 856.0 W/m2 FEW
13:01 13.4 °C 11.6 °C 1014.8 hPa SSE 11.3 km/h 11.3 km/h 89 % 0.51 mm 816.6 W/m2 CLR
13:06 13.5 °C 11.7 °C 1014.8 hPa WSW 11.7 km/h 11.7 km/h 89 % 0.25 mm 322.1 W/m2 FEW
13:12 13.2 °C 12.1 °C 1014.8 hPa SSW 5.6 km/h 5.6 km/h 93 % 0.25 mm 152.5 W/m2 BKN
13:17 12.6 °C 11.5 °C 1014.8 hPa South 4.2 km/h 4.2 km/h 93 % 0.51 mm 125.8 W/m2 RA
13:22 11.9 °C 11.4 °C 1014.8 hPa SSE 5.8 km/h 5.8 km/h 97 % 0.51 mm 115.4 W/m2 RA
13:27 11.5 °C 11.3 °C 1014.8 hPa SE 5.1 km/h 5.1 km/h 99 % 0.76 mm 114.7 W/m2 RA
13:32 11.2 °C 11.2 °C 1014.8 hPa Calm     100 % 0.76 mm 217.5 W/m2 RA
13:37 11.9 °C 11.9 °C 1014.8 hPa Calm     100 % 0.76 mm 600.3 W/m2 BKN
13:42 12 °C 12 °C 1014.8 hPa Calm     100 % 0.76 mm 419.7 W/m2 BKN
13:47 12 °C 11.8 °C 1014.8 hPa NNE 0.6 km/h 0.6 km/h 99 % 0.76 mm 115.0 W/m2 BKN
13:52 11.8 °C 11.8 °C 1014.8 hPa WSW 5.6 km/h 5.6 km/h 100 % 0.76 mm 110.3 W/m2 BKN
13:57 11.5 °C 11.5 °C 1015.1 hPa South 11.1 km/h 11.1 km/h 100 % 1.27 mm 30.2 W/m2 RA
14:02 10.7 °C 10.7 °C 1015.1 hPa South 1.9 km/h   100 % 2.03 mm 57.5 W/m2 RA
14:07 10.2 °C 10.2 °C 1015.1 hPa WSW 1.9 km/h   100 % 2.29 mm 124.5 W/m2 RA
14:12 10.1 °C 10.1 °C 1015.1 hPa Calm     100 % 2.29 mm 249.9 W/m2 RA
14:17 10.5 °C 10.5 °C 1015.1 hPa Calm     100 % 2.03 mm 285.0 W/m2 RA
14:22 11.1 °C 11.1 °C 1015.1 hPa South 0.5 km/h   100 % 1.52 mm 487.7 W/m2 BKN
14:27 11.7 °C 11.7 °C 1015.1 hPa South 1 km/h 1 km/h 100 % 1.27 mm 744.0 W/m2 SCT
14:33 12.4 °C 12.1 °C 1015.1 hPa Calm     98 % 1.27 mm 545.0 W/m2 CLR
14:38 13.1 °C 12.6 °C 1015.1 hPa South 7.4 km/h 7.4 km/h 97 % 1.27 mm 610.1 W/m2 CLR
14:44 13.8 °C 13.3 °C 1015.1 hPa SE 3.7 km/h 3.7 km/h 97 % 1.27 mm 477.8 W/m2 FEW
14:49 13.5 °C 13.1 °C 1015.1 hPa Calm     97 % 1.27 mm 347.5 W/m2 BKN
14:54 13.6 °C 13.3 °C 1015.1 hPa Calm     98 % 1.27 mm 263.7 W/m2 BKN
14:59 13.4 °C 12.4 °C 1015.1 hPa Calm     94 % 0.51 mm 220.6 W/m2 BKN
15:04 12.7 °C 12.2 °C 1015.5 hPa Calm     97 % 0.25 mm 119.6 W/m2 BKN
15:09 12.4 °C 12.4 °C 1015.5 hPa Calm     100 % 0 mm 103.5 W/m2 OVC
15:14 12.4 °C 12.4 °C 1015.5 hPa Calm     100 % 0 mm 194.0 W/m2 OVC
15:20 12.7 °C 12.6 °C 1015.5 hPa Calm     99 % 0 mm 228.0 W/m2 BKN
15:25 12.6 °C 12.3 °C 1015.5 hPa Calm     98 % 0 mm 102.2 W/m2 BKN
15:30 12.5 °C 12.2 °C 1015.5 hPa Calm     98 % 0 mm 76.2 W/m2 OVC
15:35 12.2 °C 12.1 °C 1015.5 hPa West 2.9 km/h 2.9 km/h 99 % 0 mm 52.5 W/m2 OVC
15:40 11.9 °C 11.9 °C 1015.5 hPa Calm     100 % 0 mm 73.0 W/m2 OVC
15:45 12 °C 12 °C 1015.5 hPa Calm     100 % 0 mm 103.6 W/m2 OVC
15:50 12.9 °C 12.9 °C 1015.5 hPa Calm     100 % 0 mm 547.5 W/m2 BKN
15:55 13.7 °C 12.9 °C 1015.5 hPa South 4 km/h 4 km/h 95 % 0 mm 553.4 W/m2 BKN
16:00 14 °C 13.1 °C 1015.5 hPa SSW 1.9 km/h 1.9 km/h 94 % 0 mm 521.8 W/m2 FEW
16:05 14.7 °C 12.7 °C 1015.5 hPa SE 7.4 km/h 7.4 km/h 88 % 0 mm 390.0 W/m2 FEW
16:10 14.1 °C 12.8 °C 1015.5 hPa East 5.6 km/h 5.6 km/h 92 % 0 mm 179.8 W/m2 BKN
16:15 13.5 °C 12.2 °C 1015.5 hPa Calm     92 % 0 mm 200.0 W/m2 BKN
16:20 13.5 °C 11.9 °C 1015.5 hPa SW 1.9 km/h   90 % 0 mm 272.5 W/m2 BKN
16:25 13.6 °C 12 °C 1015.5 hPa West 1.9 km/h 1.9 km/h 90 % 0 mm 200.8 W/m2 BKN
16:30 13.7 °C 10.9 °C 1015.5 hPa NE 7.4 km/h 7.4 km/h 83 % 0 mm 340.0 W/m2 BKN
16:36 14.1 °C 11.4 °C 1015.5 hPa NW 5.6 km/h   84 % 0 mm 270.0 W/m2 BKN
16:41 14 °C 11.2 °C 1015.5 hPa SSW 4.5 km/h 4.5 km/h 83 % 0 mm 154.0 W/m2 BKN
16:46 14.2 °C 10.4 °C 1015.5 hPa East 11.1 km/h 11.1 km/h 78 % 0 mm 312.5 W/m2 BKN
16:51 14.4 °C 11.2 °C 1015.8 hPa SW 16.3 km/h 16.3 km/h 81 % 0 mm 277.5 W/m2 BKN
16:56 14.2 °C 10.8 °C 1015.8 hPa Calm     80 % 0 mm 127.9 W/m2 BKN
17:01 13.8 °C 10.6 °C 1015.8 hPa NNE 9.3 km/h 9.3 km/h 81 % 0 mm 175.0 W/m2 BKN
17:06 13.5 °C 9.9 °C 1015.8 hPa SW 7.4 km/h 7.4 km/h 79 % 0 mm 165.0 W/m2 BKN
17:11 13.3 °C 9.9 °C 1015.8 hPa West 4 km/h 4 km/h 80 % 0 mm 89.3 W/m2 OVC
17:16 13.2 °C 9.8 °C 1015.8 hPa West 9.3 km/h 9.3 km/h 80 % 0 mm 145.0 W/m2 OVC
17:21 13.3 °C 8.9 °C 1015.8 hPa NNW 13 km/h 13 km/h 75 % 0 mm 222.5 W/m2 BKN
17:26 13.7 °C 9.9 °C 1015.8 hPa Calm     78 % 0 mm 122.6 W/m2 BKN
17:31 13.9 °C 10.1 °C 1015.8 hPa WNW 4.2 km/h 4.2 km/h 78 % 0 mm 257.5 W/m2 BKN
17:36 14 °C 10.1 °C 1015.8 hPa Calm     77 % 0 mm 205.0 W/m2 BKN
17:41 13.7 °C 9.9 °C 1015.8 hPa WNW 3.7 km/h 3.7 km/h 78 % 0 mm 39.5 W/m2 BKN
17:46 13.2 °C 10.4 °C 1016.1 hPa Calm     83 % 0 mm 87.5 W/m2 OVC
17:51 12.8 °C 9.8 °C 1016.1 hPa Calm     82 % 0 mm 102.5 W/m2 OVC
17:56 12.9 °C 10.4 °C 1016.1 hPa Calm     85 % 0 mm 295.0 W/m2 OVC
18:01 13.1 °C 10.3 °C 1016.1 hPa Calm     83 % 0 mm 170.0 W/m2 BKN
18:06 12.9 °C 10.1 °C 1015.8 hPa Calm     83 % 0 mm 135.0 W/m2 OVC
18:11 13.1 °C 10.3 °C 1016.1 hPa Calm     83 % 0 mm 177.5 W/m2 OVC
18:17 13.3 °C 9.9 °C 1015.8 hPa South 2.4 km/h 2.4 km/h 80 % 0 mm 64.2 W/m2 BKN
18:22 13.1 °C 9.7 °C 1016.1 hPa East 6.4 km/h 6.4 km/h 80 % 0 mm 180.0 W/m2 OVC
18:27 13.2 °C 8.1 °C 1016.1 hPa ESE 9.3 km/h 9.3 km/h 71 % 0 mm 185.0 W/m2 BKN
18:32 13.3 °C 8.6 °C 1016.1 hPa SW 12.4 km/h 12.4 km/h 73 % 0 mm 75.6 W/m2 BKN
18:37 12.9 °C 8.8 °C 1016.1 hPa SSE 5.6 km/h 5.6 km/h 76 % 0 mm 155.0 W/m2 BKN
18:42 12.9 °C 8.9 °C 1016.1 hPa ESE 6 km/h 6 km/h 77 % 0 mm 160.0 W/m2 OVC
18:47 12.7 °C 8.8 °C 1016.5 hPa NW 7.4 km/h 7.4 km/h 77 % 0 mm 10.7 W/m2 OVC
18:52 12.5 °C 8.6 °C 1016.5 hPa WNW 1.9 km/h   77 % 0 mm 125.0 W/m2 OVC
18:53 12.5 °C 8.4 °C 1016.5 hPa WNW 9.3 km/h 9.3 km/h 76 % 0 mm 135.0 W/m2 OVC
18:58 12.7 °C 8.9 °C 1016.5 hPa West 1.9 km/h 1.9 km/h 78 % 0 mm 142.5 W/m2 OVC
19:03 12.7 °C 8.6 °C 1016.8 hPa SW 4.8 km/h 4.8 km/h 76 % 0 mm 137.5 W/m2 OVC
19:08 12.8 °C 9.1 °C 1016.8 hPa West 3.7 km/h 3.7 km/h 78 % 0 mm 140.0 W/m2 OVC
19:13 12.7 °C 9.3 °C 1016.8 hPa ESE 1 km/h 1 km/h 80 % 0 mm 137.5 W/m2 OVC
19:18 12.2 °C 9.2 °C 1016.8 hPa Calm     82 % 0 mm 4.9 W/m2 OVC
19:23 12.4 °C 8.1 °C 1017.2 hPa West 3.7 km/h 3.7 km/h 75 % 0 mm 100.0 W/m2 OVC
19:28 12.4 °C 8.1 °C 1017.2 hPa SSE 11.1 km/h 11.1 km/h 75 % 0 mm 95.0 W/m2 OVC
19:33 12.4 °C 8.5 °C 1017.2 hPa Calm     77 % 0 mm 2.4 W/m2 OVC
19:38 12.3 °C 8 °C 1017.5 hPa NW 1.9 km/h 1.9 km/h 75 % 0 mm 90.0 W/m2 OVC
19:44 11.9 °C 9.6 °C 1017.5 hPa West 2.7 km/h 2.7 km/h 86 % 0 mm 85.0 W/m2 OVC
19:49 11.8 °C 8.4 °C 1017.5 hPa Calm     80 % 0 mm 0.7 W/m2 OVC
19:54 12 °C 7.9 °C 1017.5 hPa Calm     76 % 0 mm 52.5 W/m2 OVC
19:59 12 °C 8.7 °C 1017.5 hPa Calm     80 % 0 mm 62.5 W/m2 OVC
20:04 12.1 °C 8.4 °C 1017.5 hPa Calm     78 % 0 mm 47.5 W/m2 OVC
20:09 12 °C 9.2 °C 1017.5 hPa South 2.7 km/h 2.7 km/h 83 % 0 mm 27.5 W/m2 OVC
20:14 12 °C 7.9 °C 1017.5 hPa SW 4.7 km/h 4.7 km/h 76 % 0 mm 22.5 W/m2 OVC
20:19 11.9 °C 8.6 °C 1017.8 hPa Calm     80 % 0 mm 27.5 W/m2 OVC
20:24 11.7 °C 8.6 °C 1017.8 hPa West 7.4 km/h 7.4 km/h 81 % 0 mm 25.0 W/m2 OVC
20:29 11.5 °C 8.9 °C 1018.2 hPa NNE 1.9 km/h   84 % 0 mm 20.0 W/m2 OVC
20:34 11.2 °C 9.3 °C 1018.2 hPa WSW 0.2 km/h   88 % 0 mm 35.0 W/m2 OVC
20:39 11.2 °C 9.3 °C 1018.2 hPa Calm     88 % 0 mm 20.0 W/m2 OVC
20:44 11 °C 9.1 °C 1018.2 hPa Calm     88 % 0 mm 32.5 W/m2 OVC
20:49 11 °C 8.4 °C 1018.2 hPa Calm     84 % 0 mm 25.0 W/m2 OVC
20:54 10.7 °C 9.1 °C 1018.2 hPa Calm     90 % 0 mm 22.5 W/m2 OVC
20:59 10.3 °C 8.9 °C 1018.2 hPa Calm     91 % 0 mm 27.5 W/m2 OVC
21:04 10 °C 8.8 °C 1018.2 hPa Calm     92 % 0 mm 30.0 W/m2 OVC
21:09 9.7 °C 8.9 °C 1018.5 hPa Calm     95 % 0 mm 27.5 W/m2 OVC
21:14 9.4 °C 8.9 °C 1018.5 hPa Calm     97 % 0 mm 20.0 W/m2 CLR
21:20 9.3 °C 8.8 °C 1018.5 hPa SSE 3.7 km/h 3.7 km/h 97 % 0 mm 0.0 W/m2
21:25 9.5 °C 8.9 °C 1018.5 hPa Calm     96 % 0 mm 0.0 W/m2
21:30 9.5 °C 9.1 °C 1018.5 hPa Calm     97 % 0 mm 0.0 W/m2
21:35 9.5 °C 8.9 °C 1018.5 hPa Calm     96 % 0 mm 20.0 W/m2 CLR
21:40 9.2 °C 8.7 °C 1018.8 hPa Calm     97 % 0 mm 0.0 W/m2 CLR
21:45 9.1 °C 8.7 °C 1018.8 hPa Calm     97 % 0 mm 0.0 W/m2 CLR
21:50 9 °C 8.7 °C 1019.2 hPa Calm     98 % 0 mm 17.5 W/m2 CLR
21:55 8.9 °C 8.8 °C 1019.2 hPa Calm     99 % 0 mm 0.0 W/m2 CLR
22:00 8.9 °C 8.8 °C 1019.2 hPa Calm     99 % 0 mm 0.0 W/m2 CLR
22:05 8.7 °C 8.7 °C 1019.2 hPa Calm     100 % 0 mm 25.0 W/m2 CLR
22:10 8.5 °C 8.5 °C 1019.5 hPa SSW 1.9 km/h 1.9 km/h 100 % 0 mm 0.0 W/m2 CLR
22:15 8.5 °C 8.5 °C 1019.5 hPa Calm     100 % 0 mm 17.5 W/m2 CLR
22:20 8.4 °C 8.4 °C 1019.5 hPa Calm     100 % 0 mm 17.5 W/m2 CLR
22:25 8.5 °C 8.5 °C 1019.5 hPa Calm     100 % 0 mm 17.5 W/m2 CLR
22:30 8.2 °C 8.2 °C 1019.5 hPa Calm     100 % 0 mm 0.0 W/m2 CLR
22:35 8 °C 8 °C 1019.5 hPa Calm     100 % 0 mm 17.5 W/m2 CLR
22:40 8 °C 8 °C 1019.5 hPa Calm     100 % 0 mm 30.0 W/m2 CLR
22:46 7.9 °C 7.9 °C 1019.5 hPa Calm     100 % 0 mm 0.0 W/m2 CLR
22:51 7.7 °C 7.7 °C 1019.5 hPa Calm     100 % 0 mm 17.5 W/m2 CLR
22:56 7.6 °C 7.6 °C 1019.5 hPa Calm     100 % 0 mm 20.0 W/m2 CLR
23:01 7.5 °C 7.5 °C 1019.5 hPa Calm     100 % 0 mm 0.0 W/m2 CLR
23:06 7.4 °C 7.4 °C 1019.9 hPa Calm     100 % 0 mm 15.0 W/m2 CLR
23:11 7.3 °C 7.3 °C 1019.9 hPa Calm     100 % 0 mm 42.5 W/m2 CLR
23:16 7.2 °C 7.2 °C 1019.9 hPa Calm     100 % 0 mm 0.0 W/m2 CLR
23:21 7 °C 7 °C 1020.2 hPa Calm     100 % 0 mm 25.0 W/m2 CLR
23:26 7.1 °C 7.1 °C 1020.2 hPa Calm     100 % 0 mm 20.0 W/m2 CLR
23:31 7.1 °C 7.1 °C 1020.2 hPa Calm     100 % 0 mm 0.0 W/m2 CLR
23:36 7 °C 7 °C 1020.2 hPa Calm     100 % 0 mm 0.0 W/m2 CLR
23:41 6.9 °C 6.9 °C 1020.2 hPa Calm     100 % 0 mm 17.5 W/m2 CLR
23:46 6.9 °C 6.9 °C 1020.2 hPa Calm     100 % 0 mm 0.0 W/m2 CLR
23:51 6.7 °C 6.7 °C 1020.2 hPa Calm     100 % 0 mm 0.0 W/m2 CLR
23:56 6.7 °C 6.7 °C 1020.2 hPa Calm     100 % 0 mm 20.0 W/m2 CLR
Wether-Above
Compliments of Weather Underground - 2.25 mb
Welcome to Weather-Above
Cheddleton weather station supplies various organisations with data from our weather station one of them is the weather Underground this information displayed here is coming from the weather Underground server 

If any information is used please acknowledge the source to www weather-above.com or weather Underground